Time,TemperatureF,DewpointF,PressureIn,WindDirection,WindDirectionDegrees,WindSpeedMPH,WindSpeedGustMPH,Humidity,HourlyPrecipIn,Conditions,Clouds,dailyrainin,SolarRadiationWatts/m^2,SoftwareType,DateUTC
2013-02-21 00:01:00,42.2,38.0,30.17,NNE,26,2.0,5.0,86,0.00,,,0.00,0,weatherlink.com 1.10,2013-02-21 08:01:00,
2013-02-21 00:16:00,43.1,39.0,30.17,NNE,26,3.0,5.0,86,0.00,,,0.00,0,weatherlink.com 1.10,2013-02-21 08:16:00,
2013-02-21 00:31:00,42.7,39.0,30.18,NNE,26,4.0,4.0,85,0.00,,,0.00,0,weatherlink.com 1.10,2013-02-21 08:31:00,
2013-02-21 00:46:00,42.0,38.0,30.18,NNE,26,2.0,4.0,86,0.00,,,0.00,0,weatherlink.com 1.10,2013-02-21 08:46:00,
2013-02-21 01:01:00,40.9,37.0,30.18,NNE,26,2.0,3.0,87,0.00,,,0.00,0,weatherlink.com 1.10,2013-02-21 09:01:00,
2013-02-21 01:16:00,40.4,38.0,30.18,NNE,26,3.0,4.0,89,0.00,,,0.00,0,weatherlink.com 1.10,2013-02-21 09:16:00,
2013-02-21 01:31:00,40.7,38.0,30.17,NNE,26,3.0,4.0,89,0.00,,,0.00,0,weatherlink.com 1.10,2013-02-21 09:31:00,
2013-02-21 01:46:00,41.1,38.0,30.17,NNE,26,1.0,4.0,90,0.00,,,0.00,0,weatherlink.com 1.10,2013-02-21 09:46:00,
2013-02-21 02:01:00,40.1,37.0,30.17,NNE,26,2.0,4.0,89,0.00,,,0.00,0,weatherlink.com 1.10,2013-02-21 10:01:00,
2013-02-21 02:16:00,39.7,37.0,30.18,NNE,26,4.0,6.0,90,0.00,,,0.00,0,weatherlink.com 1.10,2013-02-21 10:16:00,
2013-02-21 02:31:00,40.1,38.0,30.18,NNE,26,5.0,6.0,91,0.00,,,0.00,0,weatherlink.com 1.10,2013-02-21 10:31:00,
2013-02-21 02:46:00,40.8,38.0,30.18,NNE,26,4.0,5.0,91,0.00,,,0.00,0,weatherlink.com 1.10,2013-02-21 10:46:00,
2013-02-21 03:01:00,40.7,38.0,30.17,NNE,26,2.0,6.0,90,0.00,,,0.00,0,weatherlink.com 1.10,2013-02-21 11:01:00,
2013-02-21 03:16:00,41.6,39.0,30.17,North,11,1.0,5.0,89,0.00,,,0.00,0,weatherlink.com 1.10,2013-02-21 11:16:00,
2013-02-21 03:31:00,41.5,38.0,30.17,North,11,2.0,4.0,87,0.00,,,0.00,0,weatherlink.com 1.10,2013-02-21 11:31:00,
2013-02-21 03:46:00,41.6,38.0,30.17,North,11,2.0,4.0,88,0.00,,,0.00,0,weatherlink.com 1.10,2013-02-21 11:46:00,
2013-02-21 04:01:00,41.2,38.0,30.17,North,11,2.0,4.0,87,0.00,,,0.00,0,weatherlink.com 1.10,2013-02-21 12:01:00,
2013-02-21 04:16:00,41.1,38.0,30.17,North,360,3.0,4.0,88,0.00,,,0.00,0,weatherlink.com 1.10,2013-02-21 12:16:00,
2013-02-21 04:31:00,41.5,38.0,30.16,North,5,2.0,6.0,88,0.00,,,0.00,0,weatherlink.com 1.10,2013-02-21 12:31:00,
2013-02-21 04:46:00,41.4,38.0,30.16,North,5,3.0,4.0,88,0.00,,,0.00,0,weatherlink.com 1.10,2013-02-21 12:46:00,
2013-02-21 05:01:00,40.5,37.0,30.16,North,5,0.0,4.0,88,0.00,,,0.00,0,weatherlink.com 1.10,2013-02-21 13:01:00,
2013-02-21 05:16:00,39.1,36.0,30.17,North,5,1.0,4.0,89,0.00,,,0.00,0,weatherlink.com 1.10,2013-02-21 13:16:00,
2013-02-21 05:31:00,38.8,36.0,30.17,North,5,1.0,3.0,90,0.00,,,0.00,0,weatherlink.com 1.10,2013-02-21 13:31:00,
2013-02-21 05:46:00,37.9,35.0,30.18,North,5,1.0,3.0,90,0.00,,,0.00,0,weatherlink.com 1.10,2013-02-21 13:46:00,
2013-02-21 06:01:00,38.7,37.0,30.18,North,5,6.0,6.0,92,0.00,,,0.00,0,weatherlink.com 1.10,2013-02-21 14:01:00,
2013-02-21 06:16:00,41.3,39.0,30.18,NNE,20,4.0,8.0,91,0.00,,,0.00,0,weatherlink.com 1.10,2013-02-21 14:16:00,
2013-02-21 06:31:00,41.5,38.0,30.18,NNE,21,6.0,7.0,88,0.00,,,0.00,0,weatherlink.com 1.10,2013-02-21 14:31:00,
2013-02-21 06:46:00,40.6,37.0,30.18,NNE,22,4.0,6.0,87,0.00,,,0.00,0,weatherlink.com 1.10,2013-02-21 14:46:00,
2013-02-21 07:01:00,38.9,36.0,30.19,NNE,22,4.0,4.0,89,0.00,,,0.00,7,weatherlink.com 1.10,2013-02-21 15:01:00,
2013-02-21 07:16:00,39.5,37.0,30.20,North,5,2.0,7.0,90,0.00,,,0.00,16,weatherlink.com 1.10,2013-02-21 15:16:00,
2013-02-21 07:31:00,41.3,38.0,30.20,North,5,0.0,2.0,88,0.00,,,0.00,76,weatherlink.com 1.10,2013-02-21 15:31:00,
2013-02-21 07:47:00,42.2,39.0,30.21,North,5,0.0,3.0,88,0.00,,,0.00,125,weatherlink.com 1.10,2013-02-21 15:47:00,
2013-02-21 08:02:00,43.5,40.0,30.22,North,5,1.0,2.0,87,0.00,,,0.00,181,weatherlink.com 1.10,2013-02-21 16:02:00,
2013-02-21 08:17:00,44.1,40.0,30.22,NNE,21,4.0,8.0,84,0.00,,,0.00,241,weatherlink.com 1.10,2013-02-21 16:17:00,
2013-02-21 08:32:00,46.6,40.0,30.22,WNW,289,2.0,8.0,79,0.00,,,0.00,294,weatherlink.com 1.10,2013-02-21 16:32:00,
2013-02-21 08:47:00,47.3,39.0,30.23,North,355,3.0,9.0,73,0.00,,,0.00,346,weatherlink.com 1.10,2013-02-21 16:47:00,
2013-02-21 09:02:00,48.7,41.0,30.23,NW,311,0.0,6.0,76,0.00,,,0.00,387,weatherlink.com 1.10,2013-02-21 17:02:00,
2013-02-21 09:17:00,50.8,42.0,30.23,West,279,6.0,7.0,72,0.00,,,0.00,434,weatherlink.com 1.10,2013-02-21 17:17:00,
2013-02-21 09:32:00,50.6,40.0,30.23,NNW,332,4.0,6.0,68,0.00,,,0.00,482,weatherlink.com 1.10,2013-02-21 17:32:00,
2013-02-21 09:47:00,50.9,41.0,30.24,NNW,340,4.0,9.0,68,0.00,,,0.00,517,weatherlink.com 1.10,2013-02-21 17:47:00,
2013-02-21 10:02:00,51.4,41.0,30.23,NW,325,2.0,8.0,67,0.00,,,0.00,554,weatherlink.com 1.10,2013-02-21 18:02:00,
2013-02-21 10:17:00,52.0,40.0,30.24,NNW,342,4.0,10.0,65,0.00,,,0.00,591,weatherlink.com 1.10,2013-02-21 18:17:00,
2013-02-21 10:32:00,-999.0,-99.9,30.24,WNW,299,3.0,11.0,-999,0.00,,,0.00,1777,weatherlink.com 1.10,2013-02-21 18:32:00,
2013-02-21 10:47:00,-999.0,-99.9,30.24,NW,308,5.0,10.0,-999,0.00,,,0.00,1781,weatherlink.com 1.10,2013-02-21 18:47:00,
2013-02-21 11:03:00,-999.0,-99.9,30.24,West,275,3.0,14.0,-999,0.00,,,0.00,,weatherlink.com 1.10,2013-02-21 19:03:00,
2013-02-21 11:18:00,-999.0,-99.9,30.24,WNW,294,10.0,16.0,-999,0.00,,,0.00,,weatherlink.com 1.10,2013-02-21 19:18:00,
2013-02-21 11:33:00,-999.0,-99.9,30.24,WNW,285,5.0,15.0,-999,0.00,,,0.00,,weatherlink.com 1.10,2013-02-21 19:33:00,
2013-02-21 11:48:00,-999.0,-99.9,30.23,WNW,290,7.0,16.0,-999,0.00,,,0.00,,weatherlink.com 1.10,2013-02-21 19:48:00,
2013-02-21 12:03:00,-999.0,-99.9,30.22,WNW,298,7.0,14.0,-999,0.00,,,0.00,,weatherlink.com 1.10,2013-02-21 20:03:00,
2013-02-21 12:18:00,-999.0,-99.9,30.22,West,280,12.0,17.0,-999,0.00,,,0.00,,weatherlink.com 1.10,2013-02-21 20:18:00,
2013-02-21 12:33:00,-999.0,-99.9,30.22,WNW,288,6.0,17.0,-999,0.00,,,0.00,,weatherlink.com 1.10,2013-02-21 20:33:00,
2013-02-21 12:48:00,-999.0,-99.9,30.21,WNW,295,3.0,17.0,-999,0.00,,,0.00,,weatherlink.com 1.10,2013-02-21 20:48:00,
2013-02-21 13:03:00,-999.0,-99.9,30.21,NW,311,7.0,16.0,-999,0.00,,,0.00,,weatherlink.com 1.10,2013-02-21 21:03:00,
2013-02-21 13:18:00,-999.0,-99.9,30.21,NNW,334,4.0,16.0,-999,0.00,,,0.00,,weatherlink.com 1.10,2013-02-21 21:18:00,
2013-02-21 13:33:00,-999.0,-99.9,30.20,West,271,11.0,16.0,-999,0.00,,,0.00,,weatherlink.com 1.10,2013-02-21 21:33:00,
2013-02-21 13:48:00,-999.0,-99.9,30.20,NW,313,9.0,16.0,-999,0.00,,,0.00,,weatherlink.com 1.10,2013-02-21 21:48:00,
2013-02-21 14:03:00,-999.0,-99.9,30.20,WNW,292,9.0,18.0,-999,0.00,,,0.00,,weatherlink.com 1.10,2013-02-21 22:03:00,
2013-02-21 14:18:00,-999.0,-99.9,30.20,NW,309,8.0,18.0,-999,0.00,,,0.00,,weatherlink.com 1.10,2013-02-21 22:18:00,
2013-02-21 14:34:00,-999.0,-99.9,30.19,West,281,8.0,19.0,-999,0.00,,,0.00,,weatherlink.com 1.10,2013-02-21 22:34:00,
2013-02-21 14:49:00,-999.0,-99.9,30.19,WNW,293,8.0,15.0,-999,0.00,,,0.00,,weatherlink.com 1.10,2013-02-21 22:49:00,
2013-02-21 15:04:00,-999.0,-99.9,30.18,WNW,303,8.0,16.0,-999,0.00,,,0.00,,weatherlink.com 1.10,2013-02-21 23:04:00,
2013-02-21 15:19:00,-999.0,-99.9,30.18,NNW,341,6.0,18.0,-999,0.00,,,0.00,,weatherlink.com 1.10,2013-02-21 23:19:00,
2013-02-21 15:34:00,-999.0,-99.9,30.18,WNW,294,5.0,17.0,-999,0.00,,,0.00,,weatherlink.com 1.10,2013-02-21 23:34:00,
2013-02-21 15:49:00,-999.0,-99.9,30.18,West,274,12.0,17.0,-999,0.00,,,0.00,,weatherlink.com 1.10,2013-02-21 23:49:00,
2013-02-21 16:04:00,-999.0,-99.9,30.18,NNW,338,6.0,16.0,-999,0.00,,,0.00,,weatherlink.com 1.10,2013-02-22 00:04:00,
2013-02-21 16:19:00,-999.0,-99.9,30.19,West,279,8.0,17.0,-999,0.00,,,0.00,,weatherlink.com 1.10,2013-02-22 00:19:00,
2013-02-21 16:34:00,-999.0,-99.9,30.20,WNW,285,8.0,16.0,-999,0.00,,,0.00,,weatherlink.com 1.10,2013-02-22 00:34:00,
2013-02-21 16:49:00,-999.0,-99.9,30.20,NNW,346,4.0,11.0,-999,0.00,,,0.00,,weatherlink.com 1.10,2013-02-22 00:49:00,
2013-02-21 17:04:00,-999.0,-99.9,30.20,NW,304,0.0,10.0,-999,0.00,,,0.00,,weatherlink.com 1.10,2013-02-22 01:04:00,
2013-02-21 17:19:00,-999.0,-99.9,30.20,West,277,5.0,7.0,-999,0.00,,,0.00,,weatherlink.com 1.10,2013-02-22 01:19:00,
2013-02-21 17:34:00,50.9,42.0,30.20,NW,311,8.0,10.0,71,0.00,,,0.00,25,weatherlink.com 1.10,2013-02-22 01:34:00,
2013-02-21 17:49:00,49.7,42.0,30.21,NW,319,0.0,6.0,75,0.00,,,0.00,14,weatherlink.com 1.10,2013-02-22 01:49:00,
2013-02-21 18:04:00,49.0,42.0,30.21,North,5,2.0,4.0,76,0.00,,,0.00,5,weatherlink.com 1.10,2013-02-22 02:04:00,
2013-02-21 18:19:00,48.2,41.0,30.22,North,5,3.0,4.0,77,0.00,,,0.00,0,weatherlink.com 1.10,2013-02-22 02:19:00,
2013-02-21 18:34:00,47.4,41.0,30.22,North,5,0.0,3.0,78,0.00,,,0.00,0,weatherlink.com 1.10,2013-02-22 02:34:00,
2013-02-21 18:49:00,46.7,40.0,30.22,North,5,3.0,4.0,78,0.00,,,0.00,0,weatherlink.com 1.10,2013-02-22 02:49:00,
2013-02-21 19:04:00,46.5,40.0,30.22,North,5,3.0,6.0,79,0.00,,,0.00,0,weatherlink.com 1.10,2013-02-22 03:04:00,
2013-02-21 19:19:00,46.7,41.0,30.23,North,5,3.0,6.0,79,0.00,,,0.00,0,weatherlink.com 1.10,2013-02-22 03:19:00,
2013-02-21 19:34:00,47.0,40.0,30.23,North,5,1.0,5.0,78,0.00,,,0.00,0,weatherlink.com 1.10,2013-02-22 03:34:00,
2013-02-21 19:50:00,46.2,40.0,30.23,North,5,0.0,4.0,78,0.00,,,0.00,0,weatherlink.com 1.10,2013-02-22 03:50:00,
2013-02-21 20:04:00,45.5,39.0,30.22,North,5,0.0,2.0,79,0.00,,,0.00,0,weatherlink.com 1.10,2013-02-22 04:04:00,
2013-02-21 20:19:00,44.7,39.0,30.23,North,5,0.0,2.0,80,0.00,,,0.00,0,weatherlink.com 1.10,2013-02-22 04:19:00,
2013-02-21 20:34:00,44.0,38.0,30.23,North,5,0.0,3.0,80,0.00,,,0.00,0,weatherlink.com 1.10,2013-02-22 04:34:00,
2013-02-21 20:49:00,42.2,37.0,30.23,North,9,2.0,3.0,82,0.00,,,0.00,0,weatherlink.com 1.10,2013-02-22 04:49:00,
2013-02-21 21:04:00,41.9,38.0,30.23,North,9,0.0,3.0,85,0.00,,,0.00,0,weatherlink.com 1.10,2013-02-22 05:04:00,
2013-02-21 21:19:00,41.9,38.0,30.23,North,9,0.0,4.0,86,0.00,,,0.00,0,weatherlink.com 1.10,2013-02-22 05:19:00,
2013-02-21 21:34:00,41.9,38.0,30.24,North,9,2.0,4.0,87,0.00,,,0.00,0,weatherlink.com 1.10,2013-02-22 05:34:00,
2013-02-21 21:49:00,44.0,40.0,30.24,NNE,26,1.0,8.0,86,0.00,,,0.00,0,weatherlink.com 1.10,2013-02-22 05:49:00,
2013-02-21 22:04:00,44.9,40.0,30.25,NNW,345,1.0,4.0,83,0.00,,,0.00,0,weatherlink.com 1.10,2013-02-22 06:04:00,
2013-02-21 22:20:00,46.0,40.0,30.24,North,5,0.0,4.0,80,0.00,,,0.00,0,weatherlink.com 1.10,2013-02-22 06:20:00,
2013-02-21 22:35:00,44.8,39.0,30.25,North,5,0.0,2.0,80,0.00,,,0.00,0,weatherlink.com 1.10,2013-02-22 06:35:00,
2013-02-21 22:50:00,43.6,39.0,30.25,North,5,1.0,2.0,83,0.00,,,0.00,0,weatherlink.com 1.10,2013-02-22 06:50:00,
2013-02-21 23:05:00,44.4,40.0,30.25,NE,40,3.0,5.0,84,0.00,,,0.00,0,weatherlink.com 1.10,2013-02-22 07:05:00,
2013-02-21 23:20:00,45.4,40.0,30.25,SSE,148,0.0,4.0,81,0.00,,,0.00,0,weatherlink.com 1.10,2013-02-22 07:20:00,
2013-02-21 23:35:00,46.0,40.0,30.25,North,360,1.0,8.0,79,0.00,,,0.00,0,weatherlink.com 1.10,2013-02-22 07:35:00,
2013-02-21 23:50:00,45.6,39.0,30.25,North,360,0.0,3.0,78,0.00,,,0.00,0,weatherlink.com 1.10,2013-02-22 07:50:00,